createdAt,value
2017-05-31T00:00:58.489Z,80.90
2017-05-31T00:03:25.753Z,80.90
2017-05-31T00:05:52.892Z,81.40
2017-05-31T00:08:20.032Z,81.40
2017-05-31T00:10:47.480Z,81.70
2017-05-31T00:13:14.629Z,82.10
2017-05-31T00:15:41.744Z,82.30
2017-05-31T00:18:08.929Z,82.10
2017-05-31T00:20:36.048Z,81.70
2017-05-31T00:23:03.187Z,81.20
2017-05-31T00:25:30.357Z,81.70
2017-05-31T00:27:57.499Z,81.90
2017-05-31T00:30:24.638Z,81.80
2017-05-31T00:32:52.422Z,81.80
2017-05-31T00:35:19.557Z,81.90
2017-05-31T00:37:46.696Z,82.30
2017-05-31T00:40:13.880Z,82.50
2017-05-31T00:42:41.241Z,83.10
2017-05-31T00:45:08.408Z,82.90
2017-05-31T00:47:35.536Z,83.00
2017-05-31T00:50:01.981Z,83.00
2017-05-31T00:52:29.137Z,83.40
2017-05-31T00:54:56.286Z,83.70
2017-05-31T00:57:23.462Z,83.70
2017-05-31T00:59:50.613Z,84.10
2017-05-31T01:02:17.752Z,83.80
2017-05-31T01:04:44.923Z,83.80
2017-05-31T01:07:12.069Z,84.00
2017-05-31T01:09:39.345Z,84.10
2017-05-31T01:12:06.485Z,84.10
2017-05-31T01:14:33.637Z,83.80
2017-05-31T01:17:01.041Z,84.00
2017-05-31T01:19:28.201Z,84.10
2017-05-31T01:21:55.394Z,84.30
2017-05-31T01:24:22.569Z,84.70
2017-05-31T01:26:49.836Z,84.60
2017-05-31T01:29:16.977Z,84.70
2017-05-31T01:31:44.189Z,85.10
2017-05-31T01:34:11.357Z,84.70
2017-05-31T01:36:38.502Z,84.70
2017-05-31T01:39:05.661Z,84.70
2017-05-31T01:41:32.856Z,85.10
2017-05-31T01:44:00.041Z,85.00
2017-05-31T01:46:27.206Z,85.40
2017-05-31T01:48:54.473Z,85.20
2017-05-31T01:51:21.672Z,85.20
2017-05-31T01:53:48.805Z,85.00
2017-05-31T01:56:15.965Z,84.90
2017-05-31T01:58:43.179Z,84.50
2017-05-31T02:01:10.324Z,84.40
2017-05-31T02:03:37.511Z,85.60
2017-05-31T02:06:04.701Z,84.00
2017-05-31T02:08:31.829Z,83.90
2017-05-31T02:10:59.004Z,84.00
2017-05-31T02:13:26.153Z,82.70
2017-05-31T02:15:53.292Z,82.80
2017-05-31T02:18:19.712Z,82.80
2017-05-31T02:20:46.851Z,81.90
2017-05-31T02:23:18.329Z,82.70
2017-05-31T02:25:41.209Z,82.80
2017-05-31T02:28:08.391Z,83.20
2017-05-31T02:30:35.588Z,82.10
2017-05-31T02:33:02.737Z,81.90
2017-05-31T02:35:29.881Z,82.60
2017-05-31T02:37:57.139Z,82.30
2017-05-31T02:40:24.296Z,82.00
2017-05-31T02:42:51.436Z,82.00
2017-05-31T02:45:18.635Z,82.40
2017-05-31T02:47:45.760Z,82.80
2017-05-31T02:50:13.041Z,83.40
2017-05-31T02:52:40.168Z,83.10
2017-05-31T02:55:07.740Z,82.90
2017-05-31T02:57:35.686Z,83.00
2017-05-31T03:00:02.828Z,83.20
2017-05-31T03:02:30.017Z,83.30
2017-05-31T03:04:57.153Z,83.70
2017-05-31T03:07:24.290Z,83.80
2017-05-31T03:09:51.458Z,83.60
2017-05-31T03:12:18.645Z,83.90
2017-05-31T03:14:45.778Z,83.70
2017-05-31T03:17:12.921Z,83.00
2017-05-31T03:19:40.077Z,83.70
2017-05-31T03:22:07.206Z,83.80
2017-05-31T03:24:34.325Z,83.50
2017-05-31T03:27:01.505Z,83.40
2017-05-31T03:29:28.664Z,83.60
2017-05-31T03:31:55.822Z,83.00
2017-05-31T03:34:22.985Z,84.00
2017-05-31T03:36:50.115Z,83.00
2017-05-31T03:39:17.264Z,82.50
2017-05-31T03:41:44.436Z,82.50
2017-05-31T03:44:11.579Z,82.30
2017-05-31T03:46:38.720Z,81.10
2017-05-31T03:49:05.933Z,80.40
2017-05-31T03:51:47.988Z,80.90
2017-05-31T03:54:15.175Z,81.20
2017-05-31T03:56:42.380Z,82.10
2017-05-31T03:59:09.540Z,83.00
2017-05-31T04:01:36.722Z,82.20
2017-05-31T04:04:03.889Z,81.90
2017-05-31T04:06:31.057Z,82.30
2017-05-31T04:08:58.200Z,82.60
2017-05-31T04:11:25.381Z,82.70
2017-05-31T04:13:52.505Z,81.80
2017-05-31T04:16:19.647Z,82.50
2017-05-31T04:18:46.817Z,83.10
2017-05-31T04:21:13.977Z,82.40
2017-05-31T04:23:41.169Z,82.60
2017-05-31T04:26:08.317Z,82.70
2017-05-31T04:28:35.472Z,82.60
2017-05-31T04:31:02.629Z,82.10
2017-05-31T04:33:29.288Z,82.60
2017-05-31T04:35:57.614Z,81.70
2017-05-31T04:38:24.945Z,82.70
2017-05-31T04:40:52.145Z,82.10
2017-05-31T04:43:19.659Z,81.90
2017-05-31T04:45:46.848Z,81.80
2017-05-31T04:48:14.000Z,81.40
2017-05-31T04:50:41.284Z,81.90
2017-05-31T04:53:08.544Z,82.20
2017-05-31T04:55:35.676Z,81.40
2017-05-31T04:58:02.845Z,81.60
2017-05-31T05:00:30.113Z,81.50
2017-05-31T05:02:57.265Z,81.00
2017-05-31T05:05:24.416Z,80.70
2017-05-31T05:07:51.618Z,79.10
2017-05-31T05:10:18.772Z,79.00
2017-05-31T05:12:45.934Z,78.30
2017-05-31T05:15:13.110Z,78.70
2017-05-31T05:17:40.268Z,79.80
2017-05-31T05:20:07.425Z,79.80
2017-05-31T05:22:34.719Z,79.90
2017-05-31T05:25:01.869Z,80.30
2017-05-31T05:27:29.020Z,80.60
2017-05-31T05:29:56.182Z,79.60
2017-05-31T05:32:23.335Z,79.40
2017-05-31T05:34:50.538Z,79.70
2017-05-31T05:37:17.913Z,81.30
2017-05-31T05:39:45.074Z,82.40
2017-05-31T05:42:12.216Z,81.60
2017-05-31T05:44:39.409Z,80.60
2017-05-31T05:47:06.586Z,79.60
2017-05-31T05:49:33.755Z,79.20
2017-05-31T05:52:00.905Z,79.90
2017-05-31T05:54:28.078Z,80.20
2017-05-31T05:56:55.230Z,80.90
2017-05-31T05:59:22.383Z,80.80
2017-05-31T06:01:49.692Z,81.80
2017-05-31T06:04:16.817Z,81.10
2017-05-31T06:06:43.948Z,80.10
2017-05-31T06:09:11.126Z,80.70
2017-05-31T06:11:38.279Z,80.20
2017-05-31T06:14:05.422Z,80.00
2017-05-31T06:16:32.630Z,79.60
2017-05-31T06:18:59.783Z,79.80
2017-05-31T06:21:26.933Z,80.70
2017-05-31T06:24:09.038Z,82.20
2017-05-31T06:26:36.185Z,83.50
2017-05-31T06:29:03.357Z,80.50
2017-05-31T06:31:30.489Z,80.90
2017-05-31T06:33:57.621Z,80.90
2017-05-31T06:36:24.109Z,79.90
2017-05-31T06:38:51.274Z,75.50
2017-05-31T06:41:18.409Z,76.30
2017-05-31T06:43:45.576Z,74.30
2017-05-31T06:46:12.720Z,75.70
2017-05-31T06:48:39.860Z,74.80
2017-05-31T06:51:07.150Z,73.80
2017-05-31T06:53:34.268Z,73.20
2017-05-31T06:56:01.421Z,73.50
2017-05-31T06:58:28.624Z,72.90
2017-05-31T07:00:55.796Z,72.80
2017-05-31T07:03:22.945Z,73.20
2017-05-31T07:05:50.076Z,74.40
2017-05-31T07:08:17.538Z,73.00
2017-05-31T07:10:45.015Z,70.70
2017-05-31T07:13:12.258Z,70.00
2017-05-31T07:15:39.681Z,70.00
2017-05-31T07:18:06.915Z,68.50
2017-05-31T07:20:34.100Z,69.00
2017-05-31T07:23:01.417Z,66.90
2017-05-31T07:25:28.650Z,64.30
2017-05-31T07:27:55.985Z,63.80
2017-05-31T07:30:23.522Z,65.10
2017-05-31T07:32:50.808Z,64.10
2017-05-31T07:35:18.023Z,64.70
2017-05-31T07:37:45.410Z,62.40
2017-05-31T07:40:12.841Z,63.30
2017-05-31T07:42:40.495Z,59.80
2017-05-31T07:45:07.825Z,58.40
2017-05-31T07:47:34.998Z,57.30
2017-05-31T07:50:02.201Z,58.90
2017-05-31T07:52:29.353Z,59.30
2017-05-31T07:54:56.488Z,57.10
2017-05-31T07:57:23.748Z,57.70
2017-05-31T07:59:50.898Z,55.80
2017-05-31T08:02:18.028Z,55.10
2017-05-31T08:04:45.205Z,55.70
2017-05-31T08:07:12.341Z,53.70
2017-05-31T08:09:39.480Z,53.90
2017-05-31T08:12:06.653Z,54.20
2017-05-31T08:14:33.832Z,54.80
2017-05-31T08:17:00.984Z,54.90
2017-05-31T08:19:28.129Z,55.00
2017-05-31T08:21:55.308Z,55.10
2017-05-31T08:24:22.449Z,54.40
2017-05-31T08:26:49.621Z,55.40
2017-05-31T08:29:16.786Z,53.70
2017-05-31T08:31:43.924Z,53.00
2017-05-31T08:34:11.073Z,53.70
2017-05-31T08:36:38.235Z,53.30
2017-05-31T08:39:05.370Z,54.70
2017-05-31T08:41:33.035Z,53.60
2017-05-31T08:44:00.725Z,54.70
2017-05-31T08:46:28.040Z,52.50
2017-05-31T08:48:55.251Z,52.60
2017-05-31T08:51:22.486Z,50.00
2017-05-31T08:53:49.688Z,50.20
2017-05-31T08:56:16.913Z,48.60
2017-05-31T08:58:44.222Z,49.40
2017-05-31T09:01:11.442Z,47.40
2017-05-31T09:03:38.638Z,46.90
2017-05-31T09:06:05.874Z,46.90
2017-05-31T09:08:33.210Z,45.50
2017-05-31T09:11:00.429Z,47.20
2017-05-31T09:13:27.601Z,43.60
2017-05-31T09:15:54.797Z,43.20
2017-05-31T09:18:22.953Z,43.80
2017-05-31T09:20:50.107Z,43.20
2017-05-31T09:23:17.296Z,42.40
2017-05-31T09:25:44.449Z,44.00
2017-05-31T09:28:11.598Z,42.00
2017-05-31T09:30:38.801Z,42.10
2017-05-31T09:33:06.000Z,42.50
2017-05-31T09:35:33.172Z,43.00
2017-05-31T09:38:00.357Z,43.40
2017-05-31T09:40:27.532Z,42.10
2017-05-31T09:42:54.684Z,41.80
2017-05-31T09:45:21.864Z,41.10
2017-05-31T09:47:49.041Z,42.20
2017-05-31T09:50:15.434Z,42.10
2017-05-31T09:52:42.597Z,42.30
2017-05-31T09:55:09.867Z,41.90
2017-05-31T09:57:37.037Z,41.20
2017-05-31T10:00:04.193Z,41.60
2017-05-31T10:02:31.712Z,42.20
2017-05-31T10:04:59.136Z,44.40
2017-05-31T10:07:26.381Z,44.90
2017-05-31T10:09:53.620Z,43.40
2017-05-31T10:12:20.809Z,43.20
2017-05-31T10:14:54.856Z,43.90
2017-05-31T10:17:22.029Z,42.30
2017-05-31T10:19:49.175Z,42.60
2017-05-31T10:22:16.360Z,42.80
2017-05-31T10:24:43.538Z,42.70
2017-05-31T10:27:10.692Z,42.90
2017-05-31T10:29:37.876Z,41.50
2017-05-31T10:32:05.014Z,41.90
2017-05-31T10:34:32.188Z,41.90
2017-05-31T10:36:59.332Z,41.80
2017-05-31T10:39:26.464Z,40.30
2017-05-31T10:41:53.648Z,40.80
2017-05-31T10:44:20.785Z,38.50
2017-05-31T10:46:47.938Z,38.00
2017-05-31T10:49:15.214Z,38.00
2017-05-31T10:51:42.352Z,37.10
2017-05-31T10:54:09.480Z,39.70
2017-05-31T10:56:36.649Z,39.40
2017-05-31T10:59:03.788Z,38.30
2017-05-31T11:01:30.964Z,36.30
2017-05-31T11:03:58.108Z,36.10
2017-05-31T11:06:25.296Z,35.60
2017-05-31T11:08:52.478Z,39.10
2017-05-31T11:11:19.680Z,37.00
2017-05-31T11:13:46.852Z,36.60
2017-05-31T11:16:13.993Z,36.80
2017-05-31T11:18:41.145Z,34.90
2017-05-31T11:21:08.337Z,34.20
2017-05-31T11:23:35.528Z,36.40
2017-05-31T11:26:02.704Z,37.10
2017-05-31T11:28:29.841Z,33.60
2017-05-31T11:30:56.976Z,35.50
2017-05-31T11:33:24.145Z,34.00
2017-05-31T11:35:51.306Z,34.50
2017-05-31T11:38:18.423Z,33.10
2017-05-31T11:40:45.704Z,34.10
2017-05-31T11:43:12.849Z,32.40
2017-05-31T11:45:39.992Z,34.30
2017-05-31T11:48:07.172Z,32.30
2017-05-31T11:50:34.321Z,32.60
2017-05-31T11:53:02.324Z,30.40
2017-05-31T11:55:29.497Z,31.70
2017-05-31T11:57:56.624Z,31.30
2017-05-31T12:00:23.794Z,29.60
2017-05-31T12:02:50.945Z,31.40
2017-05-31T12:05:18.110Z,30.20
2017-05-31T12:07:45.280Z,33.60
2017-05-31T12:10:12.410Z,31.40
2017-05-31T12:12:39.592Z,28.70
2017-05-31T12:15:06.776Z,28.70
2017-05-31T12:17:33.940Z,29.00
2017-05-31T12:20:01.062Z,28.00
2017-05-31T12:22:28.321Z,28.40
2017-05-31T12:24:55.457Z,29.20
2017-05-31T12:27:22.601Z,28.40
2017-05-31T12:29:49.042Z,28.40
2017-05-31T12:32:16.182Z,28.70
2017-05-31T12:34:43.456Z,28.50
2017-05-31T12:37:10.696Z,28.10
2017-05-31T12:39:37.844Z,28.00
2017-05-31T12:42:04.969Z,27.90
2017-05-31T12:44:32.129Z,27.20
2017-05-31T12:46:59.265Z,28.60
2017-05-31T12:49:26.413Z,28.00
2017-05-31T12:51:53.585Z,27.30
2017-05-31T12:54:20.769Z,30.90
2017-05-31T12:56:47.959Z,32.30
2017-05-31T12:59:15.805Z,31.90
2017-05-31T13:01:42.956Z,30.00
2017-05-31T13:04:10.091Z,30.00
2017-05-31T13:06:37.353Z,30.50
2017-05-31T13:09:04.573Z,33.90
2017-05-31T13:11:31.729Z,35.30
2017-05-31T13:13:58.944Z,36.90
2017-05-31T13:16:27.029Z,38.80
2017-05-31T13:18:54.171Z,38.60
2017-05-31T13:21:21.353Z,40.90
2017-05-31T13:23:48.544Z,42.70
2017-05-31T13:26:15.689Z,43.40
2017-05-31T13:28:42.910Z,44.50
2017-05-31T13:31:10.196Z,45.50
2017-05-31T13:33:37.357Z,45.90
2017-05-31T13:36:04.520Z,47.10
2017-05-31T13:38:31.704Z,46.90
2017-05-31T13:40:58.868Z,48.00
2017-05-31T13:43:26.029Z,48.40
2017-05-31T13:45:53.216Z,49.20
2017-05-31T13:48:19.752Z,49.10
2017-05-31T13:50:46.884Z,51.20
2017-05-31T13:53:14.035Z,51.90
2017-05-31T13:55:41.213Z,52.70
2017-05-31T13:58:08.385Z,56.00
2017-05-31T14:00:35.657Z,61.70
2017-05-31T14:03:02.781Z,66.80
2017-05-31T14:05:29.949Z,69.00
2017-05-31T14:07:57.132Z,72.60
2017-05-31T14:10:24.285Z,75.00
2017-05-31T14:12:51.420Z,75.70
2017-05-31T14:15:18.602Z,75.20
2017-05-31T14:17:45.753Z,72.60
2017-05-31T14:20:12.902Z,76.60
2017-05-31T14:22:40.092Z,77.50
2017-05-31T14:25:07.256Z,80.50
2017-05-31T14:27:34.413Z,83.10
2017-05-31T14:30:01.656Z,80.90
2017-05-31T14:32:28.797Z,81.70
2017-05-31T14:34:55.940Z,82.10
2017-05-31T14:37:23.129Z,83.00
2017-05-31T14:39:50.301Z,83.30
2017-05-31T14:42:17.446Z,85.90
2017-05-31T14:44:45.312Z,84.80
2017-05-31T14:47:13.169Z,85.70
2017-05-31T14:49:40.300Z,84.50
2017-05-31T14:52:07.444Z,87.50
2017-05-31T14:54:34.621Z,86.30
2017-05-31T14:57:01.759Z,86.50
2017-05-31T14:59:28.901Z,89.00
2017-05-31T15:01:56.097Z,87.50
2017-05-31T15:04:23.249Z,87.80
2017-05-31T15:06:50.396Z,88.70
2017-05-31T15:09:17.592Z,90.60
2017-05-31T15:11:44.760Z,87.40
2017-05-31T15:14:11.944Z,88.00
2017-05-31T15:16:39.097Z,88.40
2017-05-31T15:19:06.433Z,87.00
2017-05-31T15:21:33.710Z,89.70
2017-05-31T15:24:00.832Z,86.10
2017-05-31T15:26:28.315Z,86.40
2017-05-31T15:28:55.455Z,86.00
2017-05-31T15:31:22.661Z,88.90
2017-05-31T15:33:49.883Z,90.20
2017-05-31T15:36:17.144Z,90.30
2017-05-31T15:38:44.321Z,90.70
2017-05-31T15:41:11.505Z,90.60
2017-05-31T15:43:38.933Z,89.40
2017-05-31T15:46:06.244Z,90.70
2017-05-31T15:48:33.413Z,89.90
2017-05-31T15:51:00.805Z,89.30
2017-05-31T15:53:28.089Z,88.30
2017-05-31T15:55:55.241Z,87.50
2017-05-31T15:58:22.441Z,87.10
2017-05-31T16:00:49.621Z,85.20
2017-05-31T16:03:16.825Z,84.90
2017-05-31T16:05:44.257Z,84.80
2017-05-31T16:08:11.445Z,87.00
2017-05-31T16:10:38.593Z,85.20
2017-05-31T16:13:05.784Z,83.70
2017-05-31T16:15:32.932Z,86.10
2017-05-31T16:18:00.081Z,86.00
2017-05-31T16:20:27.441Z,85.20
2017-05-31T16:22:54.643Z,85.30
2017-05-31T16:25:21.787Z,83.50
2017-05-31T16:27:49.045Z,84.70
2017-05-31T16:30:16.206Z,85.10
2017-05-31T16:32:43.685Z,86.10
2017-05-31T16:35:10.937Z,86.40
2017-05-31T16:37:38.120Z,86.80
2017-05-31T16:40:06.304Z,87.50
2017-05-31T16:42:33.517Z,86.00
2017-05-31T16:45:00.659Z,87.50
2017-05-31T16:47:27.819Z,86.90
2017-05-31T16:49:54.989Z,87.30
2017-05-31T16:52:22.141Z,88.00
2017-05-31T16:54:49.625Z,88.20
2017-05-31T16:57:16.808Z,89.20
2017-05-31T16:59:43.970Z,90.30
2017-05-31T17:02:11.152Z,90.20
2017-05-31T17:04:38.297Z,89.50
2017-05-31T17:07:05.450Z,90.50
2017-05-31T17:09:32.645Z,90.50
2017-05-31T17:11:59.805Z,90.20
2017-05-31T17:14:26.958Z,90.60
2017-05-31T17:16:54.264Z,90.30
2017-05-31T17:19:21.415Z,90.40
2017-05-31T17:21:48.564Z,90.10
2017-05-31T17:24:15.781Z,90.80
2017-05-31T17:26:42.928Z,90.50
2017-05-31T17:29:10.092Z,90.80
2017-05-31T17:31:37.244Z,91.30
2017-05-31T17:34:04.398Z,91.50
2017-05-31T17:36:31.574Z,91.30
2017-05-31T17:38:58.749Z,91.50
2017-05-31T17:41:25.896Z,91.00
2017-05-31T17:43:53.072Z,91.40
2017-05-31T17:46:20.223Z,91.40
2017-05-31T17:48:47.357Z,90.90
2017-05-31T17:51:14.558Z,91.10
2017-05-31T17:53:41.689Z,91.70
2017-05-31T17:56:08.833Z,91.60
2017-05-31T17:58:36.016Z,92.00
2017-05-31T18:01:03.161Z,92.00
2017-05-31T18:03:30.313Z,92.10
2017-05-31T18:05:57.579Z,91.80
2017-05-31T18:08:24.757Z,91.90
2017-05-31T18:10:51.897Z,91.90
2017-05-31T18:13:19.069Z,91.80
2017-05-31T18:15:46.261Z,91.60
2017-05-31T18:18:13.420Z,92.00
2017-05-31T18:20:40.560Z,92.70
2017-05-31T18:23:07.738Z,93.00
2017-05-31T18:25:34.876Z,92.90
2017-05-31T18:28:02.018Z,92.40
2017-05-31T18:30:29.197Z,91.80
2017-05-31T18:32:56.329Z,90.60
2017-05-31T18:35:23.473Z,90.50
2017-05-31T18:37:50.972Z,90.90
2017-05-31T18:40:18.127Z,90.40
2017-05-31T18:42:45.296Z,90.80
2017-05-31T18:45:12.480Z,90.70
2017-05-31T18:47:39.637Z,90.50
2017-05-31T18:50:06.788Z,90.40
2017-05-31T18:52:33.975Z,91.40
2017-05-31T18:55:01.116Z,92.00
2017-05-31T18:57:28.289Z,91.90
2017-05-31T18:59:55.513Z,92.30
2017-05-31T19:02:22.685Z,92.60
2017-05-31T19:04:49.870Z,92.90
2017-05-31T19:07:17.045Z,92.70
2017-05-31T19:09:44.193Z,93.00
2017-05-31T19:12:11.445Z,92.90
2017-05-31T19:14:38.658Z,93.10
2017-05-31T19:17:05.864Z,93.10
2017-05-31T19:19:33.129Z,93.50
2017-05-31T19:22:00.561Z,93.50
2017-05-31T19:24:27.806Z,93.60
2017-05-31T19:26:54.996Z,93.30
2017-05-31T19:29:22.125Z,92.10
2017-05-31T19:31:49.273Z,91.60
2017-05-31T19:34:16.441Z,91.50
2017-05-31T19:36:43.587Z,91.70
2017-05-31T19:39:10.725Z,92.00
2017-05-31T19:41:37.918Z,91.80
2017-05-31T19:44:05.045Z,92.30
2017-05-31T19:46:32.198Z,92.50
2017-05-31T19:48:59.404Z,92.60
2017-05-31T19:51:26.601Z,93.10
2017-05-31T19:53:53.797Z,93.20
2017-05-31T19:56:20.950Z,93.10
2017-05-31T19:58:48.157Z,93.30
2017-05-31T20:01:15.309Z,93.30
2017-05-31T20:03:42.441Z,93.40
2017-05-31T20:06:09.634Z,93.60
2017-05-31T20:08:36.772Z,92.80
2017-05-31T20:11:04.131Z,92.30
2017-05-31T20:13:31.299Z,92.30
2017-05-31T20:15:58.457Z,92.00
2017-05-31T20:18:25.605Z,91.90
2017-05-31T20:20:52.798Z,91.80
2017-05-31T20:23:19.978Z,91.70
2017-05-31T20:25:47.272Z,92.40
2017-05-31T20:28:14.425Z,92.60
2017-05-31T20:30:40.842Z,92.60
2017-05-31T20:33:08.035Z,92.60
2017-05-31T20:35:35.173Z,92.40
2017-05-31T20:38:02.299Z,92.00
2017-05-31T20:40:29.476Z,91.70
2017-05-31T20:42:56.653Z,91.50
2017-05-31T20:45:23.806Z,92.10
2017-05-31T20:47:51.092Z,92.10
2017-05-31T20:50:18.229Z,92.00
2017-05-31T20:52:45.372Z,91.40
2017-05-31T20:55:12.584Z,91.40
2017-05-31T20:57:39.737Z,91.70
2017-05-31T21:00:06.883Z,91.90
2017-05-31T21:02:34.060Z,91.40
2017-05-31T21:05:01.221Z,91.60
2017-05-31T21:07:28.370Z,92.00
2017-05-31T21:09:55.814Z,91.60
2017-05-31T21:12:22.941Z,91.90
2017-05-31T21:14:50.227Z,92.30
2017-05-31T21:17:17.400Z,92.40
2017-05-31T21:19:44.553Z,92.30
2017-05-31T21:22:11.736Z,92.20
2017-05-31T21:24:38.912Z,91.70
2017-05-31T21:27:06.094Z,91.70
2017-05-31T21:29:33.249Z,92.30
2017-05-31T21:32:00.501Z,92.30
2017-05-31T21:34:27.667Z,92.40
2017-05-31T21:36:54.812Z,92.60
2017-05-31T21:39:21.973Z,92.20
2017-05-31T21:41:49.140Z,91.80
2017-05-31T21:44:16.269Z,92.00
2017-05-31T21:46:43.424Z,92.30
2017-05-31T21:49:10.569Z,92.50
2017-05-31T21:51:37.701Z,92.20
2017-05-31T21:54:04.881Z,92.50
2017-05-31T21:56:32.029Z,92.50
2017-05-31T21:58:59.169Z,92.40
2017-05-31T22:01:26.337Z,92.40
2017-05-31T22:03:53.521Z,92.50
2017-05-31T22:06:20.645Z,92.20
2017-05-31T22:08:47.796Z,92.20
2017-05-31T22:11:15.001Z,92.50
2017-05-31T22:13:42.129Z,92.30
2017-05-31T22:16:09.255Z,92.20
2017-05-31T22:18:36.424Z,92.40
2017-05-31T22:21:03.608Z,91.70
2017-05-31T22:23:30.754Z,92.00
2017-05-31T22:25:57.886Z,92.20
2017-05-31T22:28:25.053Z,92.20
2017-05-31T22:30:52.210Z,92.20
2017-05-31T22:33:19.373Z,92.50
2017-05-31T22:35:46.549Z,92.30
2017-05-31T22:38:13.705Z,91.70
2017-05-31T22:40:40.828Z,92.00
2017-05-31T22:43:07.980Z,92.00
2017-05-31T22:45:35.153Z,92.00
2017-05-31T22:48:02.284Z,92.10
2017-05-31T22:50:29.425Z,92.60
2017-05-31T22:52:56.612Z,92.30
2017-05-31T22:55:23.753Z,92.30
2017-05-31T22:57:50.902Z,92.50
2017-05-31T23:00:18.068Z,92.60
2017-05-31T23:02:45.247Z,92.60
2017-05-31T23:05:11.633Z,92.60
2017-05-31T23:07:38.772Z,92.10
2017-05-31T23:10:05.941Z,92.00
2017-05-31T23:12:33.084Z,92.20
2017-05-31T23:15:00.533Z,92.40
2017-05-31T23:17:27.657Z,92.60
2017-05-31T23:19:54.809Z,92.70
2017-05-31T23:22:21.996Z,92.70
2017-05-31T23:24:49.143Z,92.80
2017-05-31T23:27:16.289Z,93.00
2017-05-31T23:29:43.541Z,93.00
2017-05-31T23:32:10.693Z,92.90
2017-05-31T23:34:37.821Z,92.60
2017-05-31T23:37:05.086Z,92.80
2017-05-31T23:39:32.245Z,92.90
2017-05-31T23:41:59.385Z,93.00
2017-05-31T23:44:26.644Z,92.90
2017-05-31T23:46:53.783Z,93.20
2017-05-31T23:49:20.912Z,93.00
2017-05-31T23:51:48.076Z,92.90
2017-05-31T23:54:15.253Z,92.90
2017-05-31T23:56:42.420Z,92.70
2017-05-31T23:59:09.556Z,92.80
